createdAt,value
2022-12-23T00:03:33.389Z,98629.34
2022-12-23T00:08:36.273Z,98628.91
2022-12-23T00:13:56.766Z,98627.31
2022-12-23T00:18:58.717Z,98619.97
2022-12-23T00:24:00.752Z,98615.38
2022-12-23T00:29:02.778Z,98607.03
2022-12-23T00:34:04.744Z,98621.81
2022-12-23T00:39:25.183Z,98592.75
2022-12-23T00:44:27.269Z,98574.03
2022-12-23T00:49:44.265Z,98555.28
2022-12-23T00:54:46.332Z,98565.09
2022-12-23T00:59:48.326Z,98577.22
2022-12-23T01:05:09.125Z,98588.38
2022-12-23T01:10:11.301Z,98581.50
2022-12-23T01:15:13.586Z,98586.84
2022-12-23T01:20:15.614Z,98555.59
2022-12-23T01:25:17.983Z,98600.78
2022-12-23T01:30:20.092Z,98593.44
2022-12-23T01:35:22.100Z,98578.38
2022-12-23T01:40:24.103Z,98585.06
2022-12-23T01:45:31.388Z,98579.50
2022-12-23T01:50:46.970Z,98561.19
2022-12-23T01:55:59.417Z,98554.44
2022-12-23T02:01:20.798Z,98542.91
2022-12-23T02:06:53.551Z,98542.97
2022-12-23T02:12:22.874Z,98554.50
2022-12-23T02:17:44.106Z,98549.88
2022-12-23T02:23:09.194Z,98544.63
2022-12-23T02:28:35.929Z,98546.78
2022-12-23T02:33:59.748Z,98549.56
2022-12-23T02:39:42.544Z,98563.81
2022-12-23T02:45:01.656Z,98559.97
2022-12-23T02:50:24.638Z,98544.59
2022-12-23T02:55:32.421Z,98539.97
2022-12-23T03:00:36.645Z,98558.47
2022-12-23T03:05:43.080Z,98562.44
2022-12-23T03:11:06.341Z,98563.47
2022-12-23T03:16:16.961Z,98552.94
2022-12-23T03:21:40.337Z,98558.84
2022-12-23T03:26:46.241Z,98555.81
2022-12-23T03:31:50.802Z,98559.59
2022-12-23T03:36:56.012Z,98565.06
2022-12-23T03:42:27.039Z,98565.16
2022-12-23T03:47:35.681Z,98561.34
2022-12-23T03:52:54.204Z,98560.56
2022-12-23T03:58:22.302Z,98561.09
2022-12-23T04:03:56.395Z,98552.41
2022-12-23T04:08:59.399Z,98552.78
2022-12-23T04:14:01.414Z,98559.97
2022-12-23T04:19:03.515Z,98558.03
2022-12-23T04:24:05.894Z,98548.50
2022-12-23T04:29:07.994Z,98537.34
2022-12-23T04:34:10.052Z,98545.28
2022-12-23T04:39:12.265Z,98546.91
2022-12-23T04:44:14.381Z,98544.44
2022-12-23T04:49:16.545Z,98520.94
2022-12-23T04:54:18.575Z,98546.28
2022-12-23T04:59:20.674Z,98535.13
2022-12-23T05:04:22.800Z,98538.09
2022-12-23T05:09:25.065Z,98528.94
2022-12-23T05:14:27.191Z,98531.72
2022-12-23T05:19:29.269Z,98529.25
2022-12-23T05:24:31.280Z,98522.22
2022-12-23T05:29:33.259Z,98519.53
2022-12-23T05:34:35.409Z,98513.00
2022-12-23T05:39:37.354Z,98531.81
2022-12-23T05:44:39.394Z,98514.06
2022-12-23T05:49:41.495Z,98518.84
2022-12-23T05:54:43.581Z,98520.81
2022-12-23T05:59:45.651Z,98509.50
2022-12-23T06:04:47.994Z,98505.59
2022-12-23T06:09:50.226Z,98513.00
2022-12-23T06:14:52.475Z,98510.53
2022-12-23T06:19:54.444Z,98505.31
2022-12-23T06:24:56.476Z,98504.31
2022-12-23T06:29:58.583Z,98506.28
2022-12-23T06:35:00.575Z,98497.94
2022-12-23T06:40:02.589Z,98518.16
2022-12-23T06:45:06.406Z,98506.38
2022-12-23T06:50:09.302Z,98508.31
2022-12-23T06:55:11.312Z,98517.34
2022-12-23T07:00:14.144Z,98501.59
2022-12-23T07:05:17.127Z,98495.41
2022-12-23T07:10:19.196Z,98488.72
2022-12-23T07:15:21.137Z,98508.22
2022-12-23T07:20:23.237Z,98485.59
2022-12-23T07:25:25.420Z,98483.81
2022-12-23T07:30:27.514Z,98490.53
2022-12-23T07:35:29.702Z,98484.31
2022-12-23T07:40:31.792Z,98478.09
2022-12-23T07:45:33.956Z,98482.19
2022-12-23T07:50:36.074Z,98472.16
2022-12-23T07:55:39.780Z,98470.84
2022-12-23T08:00:41.818Z,98463.97
2022-12-23T08:05:43.846Z,98465.31
2022-12-23T08:10:48.597Z,98454.66
2022-12-23T08:15:55.901Z,98458.09
2022-12-23T08:21:00.459Z,98456.13
2022-12-23T08:26:06.890Z,98467.44
2022-12-23T08:31:18.236Z,98459.56
2022-12-23T08:36:23.910Z,98437.91
2022-12-23T08:41:30.054Z,98443.66
2022-12-23T08:46:32.409Z,98439.69
2022-12-23T08:51:35.745Z,98441.19
2022-12-23T08:56:41.300Z,98433.47
2022-12-23T09:01:43.734Z,98444.94
2022-12-23T09:06:45.828Z,98439.53
2022-12-23T09:11:47.857Z,98429.88
2022-12-23T09:16:52.939Z,98418.06
2022-12-23T09:21:54.902Z,98412.81
2022-12-23T09:26:56.990Z,98404.97
2022-12-23T09:31:59.017Z,98395.91
2022-12-23T09:37:02.836Z,98400.19
2022-12-23T09:42:23.108Z,98382.81
2022-12-23T09:47:28.244Z,98375.91
2022-12-23T09:52:55.039Z,98377.06
2022-12-23T09:58:06.968Z,98377.41
2022-12-23T10:03:25.135Z,98367.72
2022-12-23T10:08:46.928Z,98366.41
2022-12-23T10:13:52.415Z,98344.94
2022-12-23T10:19:07.075Z,98334.91
2022-12-23T10:24:24.355Z,98327.03
2022-12-23T10:29:30.567Z,98329.03
2022-12-23T10:34:45.876Z,98308.00
2022-12-23T10:40:24.996Z,98298.34
2022-12-23T10:45:51.853Z,98289.31
2022-12-23T10:51:12.309Z,98286.06
2022-12-23T10:56:15.284Z,98318.03
2022-12-23T11:01:26.684Z,98299.66
2022-12-23T11:06:36.861Z,98287.53
2022-12-23T11:12:04.857Z,98295.53
2022-12-23T11:17:19.353Z,98296.69
2022-12-23T11:22:25.770Z,98304.25
2022-12-23T11:27:27.809Z,98300.00
2022-12-23T11:32:30.349Z,98297.53
2022-12-23T11:37:40.483Z,98306.56
2022-12-23T11:42:43.327Z,98306.56
2022-12-23T11:47:45.402Z,98295.25
2022-12-23T11:53:00.617Z,98298.00
2022-12-23T11:58:03.369Z,98282.78
2022-12-23T12:03:14.413Z,98283.91
2022-12-23T12:08:22.697Z,98281.78
2022-12-23T12:13:36.614Z,98274.72
2022-12-23T12:18:42.086Z,98297.19
2022-12-23T12:23:48.707Z,98281.31
2022-12-23T12:28:57.545Z,98287.53
2022-12-23T12:34:05.251Z,98285.22
2022-12-23T12:39:15.757Z,98286.38
2022-12-23T12:44:34.671Z,98295.91
2022-12-23T12:49:48.575Z,98262.94
2022-12-23T12:55:02.982Z,98271.94
2022-12-23T13:00:08.608Z,98269.19
2022-12-23T13:05:40.445Z,98250.63
2022-12-23T13:10:45.234Z,98254.91
2022-12-23T13:15:47.204Z,98270.34
2022-12-23T13:20:59.981Z,98256.53
2022-12-23T13:26:14.353Z,98260.47
2022-12-23T13:31:33.520Z,98252.75
2022-12-23T13:37:00.619Z,98250.78
2022-12-23T13:42:06.066Z,98258.69
2022-12-23T13:47:18.928Z,98248.66
2022-12-23T13:52:48.432Z,98239.50
2022-12-23T13:58:19.924Z,98232.47
2022-12-23T14:03:32.644Z,98222.28
2022-12-23T14:08:43.003Z,98229.50
2022-12-23T14:13:50.894Z,98236.53
2022-12-23T14:19:04.937Z,98226.41
2022-12-23T14:24:15.640Z,98234.75
2022-12-23T14:29:43.879Z,98220.97
2022-12-23T14:35:23.909Z,98195.91
2022-12-23T14:40:37.959Z,98226.06
2022-12-23T14:45:43.885Z,98214.09
2022-12-23T14:50:58.166Z,98202.63
2022-12-23T14:56:15.366Z,98191.47
2022-12-23T15:01:39.043Z,98170.31
2022-12-23T15:06:47.642Z,98168.38
2022-12-23T15:11:50.981Z,98173.31
2022-12-23T15:16:53.002Z,98192.00
2022-12-23T15:22:20.852Z,98185.25
2022-12-23T15:27:27.736Z,98188.84
2022-12-23T15:32:31.187Z,98188.22
2022-12-23T15:37:34.388Z,98199.53
2022-12-23T15:42:38.560Z,98194.91
2022-12-23T15:47:43.036Z,98191.63
2022-12-23T15:52:47.931Z,98182.78
2022-12-23T15:57:51.798Z,98180.16
2022-12-23T16:03:01.163Z,98174.09
2022-12-23T16:08:16.555Z,98172.13
2022-12-23T16:13:20.303Z,98155.91
2022-12-23T16:18:23.649Z,98150.00
2022-12-23T16:23:30.312Z,98171.63
2022-12-23T16:28:52.612Z,98158.97
2022-12-23T16:33:59.166Z,98156.84
2022-12-23T16:39:06.906Z,98155.69
2022-12-23T16:44:08.900Z,98164.25
2022-12-23T16:49:16.945Z,98162.28
2022-12-23T16:54:20.470Z,98162.13
2022-12-23T16:59:22.642Z,98161.63
2022-12-23T17:04:24.614Z,98167.22
2022-12-23T17:09:27.611Z,98164.41
2022-12-23T17:14:29.776Z,98166.38
2022-12-23T17:19:32.951Z,98163.94
2022-12-23T17:24:35.100Z,98166.06
2022-12-23T17:29:37.084Z,98158.03
2022-12-23T17:34:39.596Z,98166.53
2022-12-23T17:39:43.175Z,98155.84
2022-12-23T17:44:45.540Z,98159.97
2022-12-23T17:49:47.935Z,98169.78
2022-12-23T17:54:51.409Z,98156.56
2022-12-23T17:59:54.778Z,98166.53
2022-12-23T18:04:56.875Z,98170.81
2022-12-23T18:09:58.962Z,98162.78
2022-12-23T18:15:02.319Z,98164.91
2022-12-23T18:20:06.439Z,98177.88
2022-12-23T18:25:15.636Z,98202.63
2022-12-23T18:30:18.337Z,98176.38
2022-12-23T18:35:27.853Z,98182.78
2022-12-23T18:40:32.897Z,98182.63
2022-12-23T18:45:39.903Z,98167.88
2022-12-23T18:50:43.005Z,98168.72
2022-12-23T18:55:45.093Z,98180.34
2022-12-23T19:00:48.437Z,98175.75
2022-12-23T19:05:52.104Z,98195.44
2022-12-23T19:10:55.467Z,98181.19
2022-12-23T19:15:57.597Z,98161.34
2022-12-23T19:21:04.210Z,98181.63
2022-12-23T19:26:06.381Z,98192.81
2022-12-23T19:31:13.156Z,98197.53
2022-12-23T19:36:22.802Z,98196.72
2022-12-23T19:41:25.481Z,98188.84
2022-12-23T19:46:27.530Z,98189.03
2022-12-23T19:51:30.641Z,98217.53
2022-12-23T19:56:32.761Z,98211.47
2022-12-23T20:01:35.163Z,98223.28
2022-12-23T20:06:38.503Z,98227.03
2022-12-23T20:11:46.638Z,98240.50
2022-12-23T20:16:49.436Z,98218.53
2022-12-23T20:21:52.190Z,98230.81
2022-12-23T20:26:54.227Z,98239.50
2022-12-23T20:31:57.240Z,98226.41
2022-12-23T20:36:59.385Z,98253.75
2022-12-23T20:42:01.443Z,98251.63
2022-12-23T20:47:05.656Z,98248.50
2022-12-23T20:52:07.820Z,98259.66
2022-12-23T20:57:09.862Z,98267.69
2022-12-23T21:02:15.774Z,98239.00
2022-12-23T21:07:17.978Z,98266.38
2022-12-23T21:12:20.031Z,98276.34
2022-12-23T21:17:23.909Z,98283.91
2022-12-23T21:22:26.424Z,98286.84
2022-12-23T21:27:28.490Z,98261.97
2022-12-23T21:32:30.564Z,98289.00
2022-12-23T21:37:32.574Z,98288.34
2022-12-23T21:42:34.599Z,98308.38
2022-12-23T21:47:36.749Z,98303.94
2022-12-23T21:52:38.742Z,98291.97
2022-12-23T21:57:40.755Z,98301.47
2022-12-23T22:02:42.944Z,98335.94
2022-12-23T22:07:45.027Z,98323.13
2022-12-23T22:12:47.097Z,98329.19
2022-12-23T22:17:49.147Z,98316.72
2022-12-23T22:22:51.169Z,98316.88
2022-12-23T22:27:53.177Z,98311.47
2022-12-23T22:32:55.659Z,98312.47
2022-12-23T22:37:59.255Z,98339.53
2022-12-23T22:43:01.203Z,98342.47
2022-12-23T22:48:03.221Z,98340.69
2022-12-23T22:53:05.962Z,98351.50
2022-12-23T22:58:08.048Z,98348.19
2022-12-23T23:03:10.012Z,98354.28
2022-12-23T23:08:14.640Z,98362.47
2022-12-23T23:13:16.741Z,98360.34
2022-12-23T23:18:19.056Z,98376.59
2022-12-23T23:23:21.711Z,98387.88
2022-12-23T23:28:23.718Z,98374.63
2022-12-23T23:33:25.717Z,98396.44
2022-12-23T23:38:28.451Z,98385.44
2022-12-23T23:43:30.672Z,98389.06
2022-12-23T23:48:32.738Z,98408.75
2022-12-23T23:53:34.864Z,98412.19
2022-12-23T23:58:37.467Z,98403.50
